KCOS/COS METAR and TAF weather

Enter ICAO airport designator
Station Type Date Time Source
KCOS METAR 2019/02/23 22:54 UTC NOAA

KCOS 232254Z 36009KT 10SM FEW070 04/M12 A2989 RMK AO2 SLP149 T00391117


Station Type Date Time Source
KCOS Decoded METAR 2019/02/23 22:54 UTC NOAA

COLORADO SPRINGS MUNI, CO, United States (KCOS) 38-49N 104-43W 1856M
Feb 23, 2019 - 05:54 PM EST / 2019.02.23 2254 UTC
Wind: from the N (360 degrees) at 10 MPH (9 KT):0
Visibility: 10 mile(s):0
Sky conditions: mostly clear
Temperature: 39.0 F (3.9 C)
Dew Point: 10.9 F (-11.7 C)
Relative Humidity: 30%
Pressure (altimeter): 29.89 in. Hg (1012 hPa)
ob: KCOS 232254Z 36009KT 10SM FEW070 04/M12 A2989 RMK AO2 SLP149 T00391117
cycle: 23

Station Type Date Time Source
KCOS TAF 2019/02/23 19:52 UTC NOAA

TAF
AMD KCOS 231849Z 2319/2418 35008KT P6SM SCT150 BKN200
FM232000 35012G22KT P6SM SCT200
FM240300 36008KT P6SM SKC
FM241600 18008KT P6SM BKN200


Example: see airport list